Time;durP1;ratioP1;P1;durP2;ratioP2;P2;SDS_P1;SDS_P2;PMS_P1;PMS_P2;Temp;Humidity;BMP_temperature;BMP_pressure;BME280_temperature;BME280_humidity;BME280_pressure;Samples;Min_cycle;Max_cycle;Signal;HPM_P1;HPM_P2
2023/05/17 00:00:37;;;;;;;;;;;15.00;99.90;;;;;;4806858;29;19963;-77
2023/05/17 00:03:04;;;;;;;;;;;15.00;99.90;;;;;;4806524;29;19933;-77
2023/05/17 00:05:32;;;;;;;;;;;15.00;99.90;;;;;;4808278;29;19936;-77
2023/05/17 00:07:59;;;;;;;;;;;15.00;99.90;;;;;;4799726;29;19983;-77
2023/05/17 00:10:26;;;;;;;;;;;15.00;99.90;;;;;;4808087;29;20637;-77
2023/05/17 00:12:53;;;;;;;;;;;15.00;99.90;;;;;;4822976;29;19989;-77
2023/05/17 00:15:20;;;;;;;;;;;14.90;99.90;;;;;;4802305;29;19928;-77
2023/05/17 00:17:47;;;;;;;;;;;15.00;99.90;;;;;;4785781;29;19943;-77
2023/05/17 00:20:15;;;;;;;;;;;15.00;99.90;;;;;;4784921;29;19936;-77
2023/05/17 00:22:44;;;;;;;;;;;15.00;99.90;;;;;;4799258;29;20063;-77
2023/05/17 00:25:11;;;;;;;;;;;14.90;99.90;;;;;;4800126;29;19928;-77
2023/05/17 00:27:39;;;;;;;;;;;15.00;99.90;;;;;;4799721;29;19932;-77
2023/05/17 00:30:06;;;;;;;;;;;14.90;99.90;;;;;;4786522;29;19937;-77
2023/05/17 00:32:35;;;;;;;;;;;13.60;99.90;;;;;;4800299;29;20410;-77
2023/05/17 00:35:03;;;;;;;;;;;16.00;99.90;;;;;;4795922;29;19937;-77
2023/05/17 00:37:31;;;;;;;;;;;14.90;99.90;;;;;;4817892;29;22402;-77
2023/05/17 00:39:58;;;;;;;;;;;15.50;99.90;;;;;;4802106;29;20043;-78
2023/05/17 00:42:25;;;;;;;;;;;14.90;99.90;;;;;;4832994;29;19936;-77
2023/05/17 00:44:52;;;;;;;;;;;14.90;99.90;;;;;;4789050;29;20045;-77
2023/05/17 00:47:20;;;;;;;;;;;14.90;99.90;;;;;;4801616;29;19982;-77
2023/05/17 00:49:47;;;;;;;;;;;14.90;99.90;;;;;;4788950;29;22893;-77
2023/05/17 00:52:15;;;;;;;;;;;14.90;99.90;;;;;;4788091;29;19936;-77
2023/05/17 00:54:42;;;;;;;;;;;14.90;99.90;;;;;;4787056;29;20408;-77
2023/05/17 00:57:10;;;;;;;;;;;14.90;99.90;;;;;;4788728;29;20385;-77
2023/05/17 00:59:37;;;;;;;;;;;14.90;99.90;;;;;;4834423;29;19936;-77
2023/05/17 01:02:05;;;;;;;;;;;14.80;99.90;;;;;;4818188;29;19936;-77
2023/05/17 01:04:32;;;;;;;;;;;14.90;99.90;;;;;;4803247;29;20027;-77
2023/05/17 01:07:00;;;;;;;;;;;14.80;99.90;;;;;;4802579;29;19936;-77
2023/05/17 01:09:27;;;;;;;;;;;14.90;99.90;;;;;;4801956;29;20388;-77
2023/05/17 01:12:09;;;;;;;;;;;14.80;99.90;;;;;;4785915;29;19940;-77
2023/05/17 01:14:55;;;;;;;;;;;14.80;99.90;;;;;;4802593;29;20022;-77
2023/05/17 01:17:35;;;;;;;;;;;14.80;99.90;;;;;;4815271;29;20342;-77
2023/05/17 01:20:14;;;;;;;;;;;14.20;99.90;;;;;;4816774;29;19939;-77
2023/05/17 01:22:50;;;;;;;;;;;14.70;99.90;;;;;;4787677;29;19936;-77
2023/05/17 01:25:24;;;;;;;;;;;14.70;99.90;;;;;;4801114;29;22254;-77
2023/05/17 01:27:52;;;;;;;;;;;14.70;99.90;;;;;;4784339;29;19964;-77
2023/05/17 01:30:21;;;;;;;;;;;14.70;99.90;;;;;;4808169;29;19989;-77
2023/05/17 01:32:49;;;;;;;;;;;15.30;99.90;;;;;;4785142;29;20636;-77
2023/05/17 01:35:16;;;;;;;;;;;14.60;99.90;;;;;;4793093;29;20076;-77
2023/05/17 01:37:44;;;;;;;;;;;14.60;99.90;;;;;;4817134;29;20043;-77
2023/05/17 01:40:13;;;;;;;;;;;14.60;99.90;;;;;;4813258;29;20794;-77
2023/05/17 01:42:41;;;;;;;;;;;14.60;99.90;;;;;;4812218;29;19935;-77
2023/05/17 01:45:17;;;;;;;;;;;14.50;99.90;;;;;;4804799;29;20105;-77
2023/05/17 01:47:44;;;;;;;;;;;14.60;99.90;;;;;;4809355;29;19943;-77
2023/05/17 01:50:13;;;;;;;;;;;14.60;99.90;;;;;;4783500;29;19928;-77
2023/05/17 01:52:49;;;;;;;;;;;14.20;99.90;;;;;;4802347;29;19929;-77
2023/05/17 01:55:32;;;;;;;;;;;13.70;99.90;;;;;;4823210;29;19992;-77
2023/05/17 01:58:00;;;;;;;;;;;14.60;99.90;;;;;;4830311;29;19933;-77
2023/05/17 02:00:28;;;;;;;;;;;14.50;99.90;;;;;;4806278;29;19939;-77
2023/05/17 02:02:56;;;;;;;;;;;14.60;99.90;;;;;;4824727;29;19936;-77
2023/05/17 02:05:23;;;;;;;;;;;14.60;99.90;;;;;;4810615;29;22443;-77
2023/05/17 02:07:50;;;;;;;;;;;14.50;99.90;;;;;;4817535;29;20042;-77
2023/05/17 02:10:17;;;;;;;;;;;14.50;99.90;;;;;;4797320;29;19935;-77
2023/05/17 02:12:45;;;;;;;;;;;14.60;99.90;;;;;;4819316;29;19936;-77
2023/05/17 02:15:12;;;;;;;;;;;14.50;99.90;;;;;;4801138;29;20523;-77
2023/05/17 02:17:39;;;;;;;;;;;14.60;99.90;;;;;;4801643;29;20312;-77
2023/05/17 02:20:07;;;;;;;;;;;14.50;99.90;;;;;;4802139;29;20065;-77
2023/05/17 02:22:34;;;;;;;;;;;14.60;99.90;;;;;;4803323;29;19943;-77
2023/05/17 02:25:01;;;;;;;;;;;14.60;99.90;;;;;;4814286;29;19939;-77
2023/05/17 02:27:28;;;;;;;;;;;15.20;99.90;;;;;;4800276;29;20613;-77
2023/05/17 02:29:56;;;;;;;;;;;14.60;99.90;;;;;;4785613;29;20671;-77
2023/05/17 02:32:23;;;;;;;;;;;14.60;99.90;;;;;;4814389;29;19936;-77
2023/05/17 02:34:50;;;;;;;;;;;14.60;99.90;;;;;;4800456;29;19942;-77
2023/05/17 02:37:17;;;;;;;;;;;14.50;99.90;;;;;;4800079;29;19962;-77
2023/05/17 02:39:44;;;;;;;;;;;14.50;99.90;;;;;;4799484;29;19983;-77
2023/05/17 02:42:11;;;;;;;;;;;15.50;99.90;;;;;;4798993;29;19947;-76
2023/05/17 02:44:38;;;;;;;;;;;14.50;99.90;;;;;;4841573;29;19936;-77
2023/05/17 02:47:08;;;;;;;;;;;14.50;99.90;;;;;;4785464;29;19936;-77
2023/05/17 02:49:35;;;;;;;;;;;14.60;99.90;;;;;;4813752;29;19935;-77
2023/05/17 02:52:02;;;;;;;;;;;14.60;99.90;;;;;;4802221;29;19943;-77
2023/05/17 02:54:29;;;;;;;;;;;14.60;99.90;;;;;;4815755;29;20025;-77
2023/05/17 02:56:57;;;;;;;;;;;14.60;99.90;;;;;;4816346;29;19936;-77
2023/05/17 02:59:24;;;;;;;;;;;14.60;99.90;;;;;;4825234;29;20656;-77
2023/05/17 03:01:51;;;;;;;;;;;15.80;99.90;;;;;;4818325;29;20086;-77
2023/05/17 03:04:19;;;;;;;;;;;14.50;99.90;;;;;;4786566;29;19936;-77
2023/05/17 03:06:46;;;;;;;;;;;14.50;99.90;;;;;;4785326;29;19936;-77
2023/05/17 03:09:13;;;;;;;;;;;14.60;99.90;;;;;;4784620;29;20837;-77
2023/05/17 03:11:41;;;;;;;;;;;14.50;99.90;;;;;;4827963;29;20323;-77
2023/05/17 03:14:16;;;;;;;;;;;14.00;99.90;;;;;;4816353;29;19936;-77
2023/05/17 03:16:43;;;;;;;;;;;14.50;99.90;;;;;;4818325;29;19928;-77
2023/05/17 03:19:10;;;;;;;;;;;14.50;99.90;;;;;;4839708;29;19932;-77
2023/05/17 03:21:40;;;;;;;;;;;14.50;99.90;;;;;;4802972;29;20087;-77
2023/05/17 03:24:07;;;;;;;;;;;14.50;99.90;;;;;;4816148;29;20763;-77
2023/05/17 03:26:36;;;;;;;;;;;14.50;99.90;;;;;;4816752;29;19936;-77
2023/05/17 03:29:04;;;;;;;;;;;14.50;99.90;;;;;;4785455;29;19943;-77
2023/05/17 03:31:31;;;;;;;;;;;14.60;99.90;;;;;;4814498;29;19966;-77
2023/05/17 03:33:58;;;;;;;;;;;14.60;99.90;;;;;;4799964;29;19937;-77
2023/05/17 03:36:30;;;;;;;;;;;14.50;99.90;;;;;;4815627;29;19932;-77
2023/05/17 03:38:57;;;;;;;;;;;14.50;99.90;;;;;;4794755;29;20015;-77
2023/05/17 03:41:24;;;;;;;;;;;14.60;99.90;;;;;;4830756;29;20018;-77
2023/05/17 03:43:52;;;;;;;;;;;14.50;99.90;;;;;;4803080;29;20703;-77
2023/05/17 03:46:20;;;;;;;;;;;14.50;99.90;;;;;;4800740;29;19936;-77
2023/05/17 03:48:48;;;;;;;;;;;14.60;99.90;;;;;;4814656;29;20396;-77
2023/05/17 03:51:16;;;;;;;;;;;14.60;99.90;;;;;;4801647;29;19932;-77
2023/05/17 03:53:43;;;;;;;;;;;14.20;99.90;;;;;;4790735;29;22223;-77
2023/05/17 03:56:10;;;;;;;;;;;14.60;99.90;;;;;;4834303;29;20353;-77
2023/05/17 03:58:38;;;;;;;;;;;14.60;99.90;;;;;;4808519;29;20308;-77
2023/05/17 04:01:05;;;;;;;;;;;14.60;99.90;;;;;;4815285;29;20995;-77
2023/05/17 04:03:32;;;;;;;;;;;14.60;99.90;;;;;;4816957;29;19947;-77
2023/05/17 04:06:06;;;;;;;;;;;14.60;99.90;;;;;;4784726;29;19936;-77
2023/05/17 04:08:35;;;;;;;;;;;14.60;99.90;;;;;;4801649;29;20762;-77
2023/05/17 04:11:09;;;;;;;;;;;14.60;99.90;;;;;;4817470;29;19988;-77
2023/05/17 04:13:36;;;;;;;;;;;14.60;99.90;;;;;;4814905;29;19936;-77
2023/05/17 04:16:04;;;;;;;;;;;14.60;99.90;;;;;;4796733;29;19936;-78
2023/05/17 04:18:33;;;;;;;;;;;14.60;99.90;;;;;;4807216;29;19943;-78
2023/05/17 04:21:00;;;;;;;;;;;14.60;99.90;;;;;;4799465;29;20084;-77
2023/05/17 04:23:28;;;;;;;;;;;14.60;99.90;;;;;;4796388;29;22192;-77
2023/05/17 04:25:57;;;;;;;;;;;14.60;99.90;;;;;;4817635;29;19935;-77
2023/05/17 04:28:24;;;;;;;;;;;14.70;99.90;;;;;;4831013;29;20323;-77
2023/05/17 04:30:52;;;;;;;;;;;14.70;99.90;;;;;;4838337;29;20047;-77
2023/05/17 04:33:21;;;;;;;;;;;14.50;99.90;;;;;;4838971;29;19932;-77
2023/05/17 04:35:49;;;;;;;;;;;14.60;99.90;;;;;;4789200;29;20023;-77
2023/05/17 04:38:17;;;;;;;;;;;14.70;99.90;;;;;;4811784;29;19928;-78
2023/05/17 04:40:44;;;;;;;;;;;14.70;99.90;;;;;;4803224;29;20427;-78
2023/05/17 04:43:11;;;;;;;;;;;14.80;99.90;;;;;;4804920;29;19932;-78
2023/05/17 04:45:40;;;;;;;;;;;14.80;99.90;;;;;;4788193;29;19932;-78
2023/05/17 04:48:07;;;;;;;;;;;14.80;99.90;;;;;;4794689;29;19936;-78
2023/05/17 04:50:34;;;;;;;;;;;14.80;99.90;;;;;;4804814;29;19936;-78
2023/05/17 04:53:03;;;;;;;;;;;14.80;99.90;;;;;;4803238;29;19943;-78
2023/05/17 04:55:33;;;;;;;;;;;14.80;99.90;;;;;;4829373;29;19936;-78
2023/05/17 04:58:00;;;;;;;;;;;14.80;99.90;;;;;;4787312;29;20072;-78
2023/05/17 05:00:28;;;;;;;;;;;14.80;99.90;;;;;;4794825;29;20728;-78
2023/05/17 05:03:03;;;;;;;;;;;14.90;99.90;;;;;;4789207;29;20384;-78
2023/05/17 05:05:32;;;;;;;;;;;14.80;99.90;;;;;;4810084;29;19939;-78
2023/05/17 05:07:59;;;;;;;;;;;14.90;99.90;;;;;;4805557;29;19936;-78
2023/05/17 05:10:27;;;;;;;;;;;14.90;99.90;;;;;;4801854;29;20289;-78
2023/05/17 05:12:55;;;;;;;;;;;14.90;99.90;;;;;;4802555;29;19975;-78
2023/05/17 05:15:22;;;;;;;;;;;15.00;99.90;;;;;;4819052;29;19936;-78
2023/05/17 05:17:54;;;;;;;;;;;15.20;99.90;;;;;;4803300;29;20031;-77
2023/05/17 05:20:21;;;;;;;;;;;14.80;99.90;;;;;;4787933;29;20802;-77
2023/05/17 05:22:51;;;;;;;;;;;15.00;99.90;;;;;;4800866;29;19984;-77
2023/05/17 05:25:19;;;;;;;;;;;15.00;99.90;;;;;;4786979;29;20285;-77
2023/05/17 05:27:46;;;;;;;;;;;15.10;99.90;;;;;;4787669;29;19936;-77
2023/05/17 05:30:20;;;;;;;;;;;15.10;99.90;;;;;;4813818;29;19936;-77
2023/05/17 05:32:51;;;;;;;;;;;15.10;99.90;;;;;;4803343;29;19936;-77
2023/05/17 05:35:19;;;;;;;;;;;15.20;99.90;;;;;;4801518;29;19943;-77
2023/05/17 05:37:46;;;;;;;;;;;15.40;99.90;;;;;;4787135;29;19942;-77
2023/05/17 05:40:13;;;;;;;;;;;14.80;99.90;;;;;;4790804;29;20444;-77
2023/05/17 05:42:41;;;;;;;;;;;16.00;99.90;;;;;;4823819;29;20038;-77
2023/05/17 05:45:09;;;;;;;;;;;15.40;99.90;;;;;;4816407;29;19943;-77
2023/05/17 05:47:36;;;;;;;;;;;15.60;99.90;;;;;;4801773;29;19975;-77
2023/05/17 05:50:04;;;;;;;;;;;15.40;99.90;;;;;;4804152;29;19936;-77
2023/05/17 05:52:31;;;;;;;;;;;15.60;99.90;;;;;;4783102;29;19979;-77
2023/05/17 05:54:59;;;;;;;;;;;15.50;99.90;;;;;;4800891;29;19936;-77
2023/05/17 05:57:26;;;;;;;;;;;15.60;99.90;;;;;;4811599;29;20611;-77
2023/05/17 05:59:54;;;;;;;;;;;15.60;99.90;;;;;;4815671;29;20624;-77
2023/05/17 06:02:21;;;;;;;;;;;15.60;99.90;;;;;;4827787;29;20415;-76
2023/05/17 06:04:48;;;;;;;;;;;15.60;99.90;;;;;;4802296;29;19936;-77
2023/05/17 06:07:15;;;;;;;;;;;15.50;99.90;;;;;;4783610;29;22343;-77
2023/05/17 06:09:43;;;;;;;;;;;15.50;99.90;;;;;;4790853;29;20262;-77
2023/05/17 06:12:10;;;;;;;;;;;15.50;99.90;;;;;;4778914;29;20439;-77
2023/05/17 06:14:37;;;;;;;;;;;15.60;99.90;;;;;;4814925;29;19939;-77
2023/05/17 06:17:04;;;;;;;;;;;15.60;99.90;;;;;;4822333;29;20404;-77
2023/05/17 06:19:31;;;;;;;;;;;15.60;99.90;;;;;;4807536;29;20582;-77
2023/05/17 06:21:59;;;;;;;;;;;15.60;99.90;;;;;;4787312;29;20119;-77
2023/05/17 06:24:26;;;;;;;;;;;15.60;99.90;;;;;;4798788;29;19968;-77
2023/05/17 06:26:53;;;;;;;;;;;16.00;99.90;;;;;;4800351;29;20316;-77
2023/05/17 06:29:20;;;;;;;;;;;15.70;99.90;;;;;;4833164;29;19928;-77
2023/05/17 06:31:47;;;;;;;;;;;15.70;99.90;;;;;;4787140;29;19991;-77
2023/05/17 06:34:15;;;;;;;;;;;15.20;99.90;;;;;;4798740;29;19940;-77
2023/05/17 06:36:42;;;;;;;;;;;15.50;99.90;;;;;;4785551;29;19954;-77
2023/05/17 06:39:09;;;;;;;;;;;15.70;99.90;;;;;;4800052;29;20388;-77
2023/05/17 06:41:37;;;;;;;;;;;15.80;99.90;;;;;;4803574;29;19943;-77
2023/05/17 06:44:04;;;;;;;;;;;15.80;99.90;;;;;;4801326;29;20369;-79
2023/05/17 06:46:33;;;;;;;;;;;14.80;99.90;;;;;;4818649;29;19943;-77
2023/05/17 06:49:00;;;;;;;;;;;15.80;99.90;;;;;;4800070;29;20410;-77
2023/05/17 06:51:28;;;;;;;;;;;15.90;99.90;;;;;;4816799;29;19936;-77
2023/05/17 06:53:55;;;;;;;;;;;15.90;99.90;;;;;;4793066;29;19936;-77
2023/05/17 06:56:22;;;;;;;;;;;15.80;99.90;;;;;;4831060;29;19936;-77
2023/05/17 06:58:49;;;;;;;;;;;15.80;99.90;;;;;;4802527;29;20029;-77
2023/05/17 07:01:17;;;;;;;;;;;15.80;99.90;;;;;;4801007;29;19940;-77
2023/05/17 07:03:44;;;;;;;;;;;15.80;99.90;;;;;;4806973;29;19943;-77
2023/05/17 07:06:11;;;;;;;;;;;15.80;99.90;;;;;;4808651;29;19939;-77
2023/05/17 07:08:39;;;;;;;;;;;15.90;99.90;;;;;;4801901;29;20328;-77
2023/05/17 07:11:06;;;;;;;;;;;15.80;99.90;;;;;;4803619;29;20043;-77
2023/05/17 07:13:33;;;;;;;;;;;15.00;99.90;;;;;;4816834;29;20030;-78
2023/05/17 07:16:00;;;;;;;;;;;15.90;99.90;;;;;;4792446;29;22255;-77
2023/05/17 07:18:28;;;;;;;;;;;15.90;99.90;;;;;;4800834;29;20760;-77
2023/05/17 07:20:55;;;;;;;;;;;15.90;99.90;;;;;;4812808;29;20344;-77
2023/05/17 07:23:22;;;;;;;;;;;15.90;99.90;;;;;;4798804;29;19936;-77
2023/05/17 07:25:49;;;;;;;;;;;16.00;99.90;;;;;;4809832;29;19940;-77
2023/05/17 07:28:16;;;;;;;;;;;16.00;99.90;;;;;;4814239;29;20436;-77
2023/05/17 07:30:43;;;;;;;;;;;16.00;99.90;;;;;;4829492;29;20018;-77
2023/05/17 07:33:10;;;;;;;;;;;16.00;99.90;;;;;;4799062;29;20406;-77
2023/05/17 07:35:38;;;;;;;;;;;15.90;99.90;;;;;;4798244;29;20655;-77
2023/05/17 07:38:05;;;;;;;;;;;16.00;99.90;;;;;;4817972;29;19939;-76
2023/05/17 07:40:32;;;;;;;;;;;16.00;99.90;;;;;;4792615;29;19967;-76
2023/05/17 07:42:59;;;;;;;;;;;16.00;99.90;;;;;;4817225;29;20439;-78
2023/05/17 07:45:26;;;;;;;;;;;16.00;99.90;;;;;;4816916;29;19943;-76
2023/05/17 07:47:54;;;;;;;;;;;15.30;99.90;;;;;;4811296;29;20395;-76
2023/05/17 07:50:21;;;;;;;;;;;16.00;99.90;;;;;;4801258;29;20018;-77
2023/05/17 07:52:48;;;;;;;;;;;16.00;99.90;;;;;;4782202;29;19936;-76
2023/05/17 07:55:15;;;;;;;;;;;16.00;99.90;;;;;;4799648;29;19987;-76
2023/05/17 07:57:43;;;;;;;;;;;16.00;99.90;;;;;;4816636;29;19936;-76
2023/05/17 08:00:11;;;;;;;;;;;16.00;99.90;;;;;;4797824;29;19939;-76
2023/05/17 08:02:39;;;;;;;;;;;15.40;99.90;;;;;;4799196;29;21186;-76
2023/05/17 08:05:07;;;;;;;;;;;16.00;99.90;;;;;;4800583;29;19936;-76
2023/05/17 08:07:34;;;;;;;;;;;16.00;99.90;;;;;;4829483;29;22223;-75
2023/05/17 08:10:01;;;;;;;;;;;16.00;99.90;;;;;;4800518;29;19940;-75
2023/05/17 08:12:28;;;;;;;;;;;16.00;99.90;;;;;;4801955;29;20075;-76
2023/05/17 08:14:55;;;;;;;;;;;16.00;99.90;;;;;;4812543;29;19964;-76
2023/05/17 08:17:22;;;;;;;;;;;16.00;99.90;;;;;;4814974;29;20003;-76
2023/05/17 08:19:49;;;;;;;;;;;16.10;99.90;;;;;;4783600;29;20704;-76
2023/05/17 08:22:16;;;;;;;;;;;16.10;99.90;;;;;;4776988;29;20685;-76
2023/05/17 08:24:44;;;;;;;;;;;16.20;99.90;;;;;;4815362;29;20079;-76
2023/05/17 08:27:11;;;;;;;;;;;16.20;99.90;;;;;;4816707;29;19928;-76
2023/05/17 08:29:38;;;;;;;;;;;16.30;99.90;;;;;;4791351;29;19936;-76
2023/05/17 08:32:06;;;;;;;;;;;16.50;99.90;;;;;;4817105;29;20309;-76
2023/05/17 08:34:33;;;;;;;;;;;16.30;99.90;;;;;;4787842;29;20175;-76
2023/05/17 08:37:01;;;;;;;;;;;16.30;99.90;;;;;;4811933;29;20011;-77
2023/05/17 08:39:28;;;;;;;;;;;16.50;99.90;;;;;;4781455;29;19942;-78
2023/05/17 08:42:00;;;;;;;;;;;16.40;99.90;;;;;;4807990;29;19936;-78
2023/05/17 08:44:27;;;;;;;;;;;16.50;99.90;;;;;;4806690;29;19943;-80
2023/05/17 08:46:55;;;;;;;;;;;16.50;99.90;;;;;;4808338;29;19943;-78
2023/05/17 08:49:24;;;;;;;;;;;16.60;99.90;;;;;;4801760;29;19936;-78
2023/05/17 08:51:56;;;;;;;;;;;16.50;99.90;;;;;;4800259;29;19940;-78
2023/05/17 08:54:24;;;;;;;;;;;16.10;99.90;;;;;;4820340;29;19935;-78
2023/05/17 08:56:57;;;;;;;;;;;15.90;99.90;;;;;;4817118;29;20247;-78
2023/05/17 08:59:25;;;;;;;;;;;16.60;99.90;;;;;;4804720;29;22275;-78
2023/05/17 09:01:53;;;;;;;;;;;16.80;99.90;;;;;;4801772;29;19933;-78
2023/05/17 09:04:22;;;;;;;;;;;16.80;99.90;;;;;;4812536;29;19935;-78
2023/05/17 09:06:50;;;;;;;;;;;16.80;99.90;;;;;;4797321;29;19936;-78
2023/05/17 09:09:20;;;;;;;;;;;16.20;99.90;;;;;;4793129;29;19944;-79
2023/05/17 09:11:47;;;;;;;;;;;17.00;99.90;;;;;;4821543;29;20062;-79
2023/05/17 09:14:17;;;;;;;;;;;17.30;99.90;;;;;;4801402;29;20376;-79
2023/05/17 09:16:45;;;;;;;;;;;17.20;99.90;;;;;;4836036;29;20133;-78
2023/05/17 09:19:15;;;;;;;;;;;17.40;99.90;;;;;;4806348;29;20052;-79
2023/05/17 09:21:46;;;;;;;;;;;17.30;99.90;;;;;;4787324;29;19943;-79
2023/05/17 09:24:14;;;;;;;;;;;17.20;99.90;;;;;;4793312;29;20023;-77
2023/05/17 09:26:44;;;;;;;;;;;17.30;99.90;;;;;;4816388;29;20471;-78
2023/05/17 09:29:12;;;;;;;;;;;17.30;99.90;;;;;;4816222;29;19997;-78
2023/05/17 09:31:40;;;;;;;;;;;17.20;99.90;;;;;;4830599;29;19932;-78
2023/05/17 09:34:07;;;;;;;;;;;17.20;99.90;;;;;;4818044;29;20758;-77
2023/05/17 09:36:36;;;;;;;;;;;17.10;99.90;;;;;;4794326;29;20554;-78
2023/05/17 09:39:04;;;;;;;;;;;17.10;99.90;;;;;;4816195;29;19939;-77
2023/05/17 09:41:32;;;;;;;;;;;17.20;99.90;;;;;;4792663;29;20078;-78
2023/05/17 09:44:00;;;;;;;;;;;17.40;99.90;;;;;;4800926;29;19936;-78
2023/05/17 09:46:32;;;;;;;;;;;17.40;99.90;;;;;;4800353;29;19943;-77
2023/05/17 09:49:02;;;;;;;;;;;17.60;99.90;;;;;;4802460;29;20435;-79
2023/05/17 09:51:33;;;;;;;;;;;17.70;99.90;;;;;;4780415;29;19996;-79
2023/05/17 09:54:05;;;;;;;;;;;17.90;99.90;;;;;;4803608;29;20097;-79
2023/05/17 09:56:33;;;;;;;;;;;17.90;99.90;;;;;;4811737;29;20307;-77
2023/05/17 09:59:01;;;;;;;;;;;18.00;99.90;;;;;;4802010;29;19936;-77
2023/05/17 10:01:29;;;;;;;;;;;18.20;99.90;;;;;;4788423;29;19936;-76
2023/05/17 10:04:01;;;;;;;;;;;18.20;99.90;;;;;;4816751;29;20301;-76
2023/05/17 10:06:29;;;;;;;;;;;18.30;99.90;;;;;;4786351;29;20058;-79
2023/05/17 10:09:14;;;;;;;;;;;18.20;99.90;;;;;;4816679;29;19934;-79
2023/05/17 10:11:45;;;;;;;;;;;18.20;99.90;;;;;;4833522;29;19928;-79
2023/05/17 10:14:22;;;;;;;;;;;18.20;99.90;;;;;;4825787;29;19932;-78
2023/05/17 10:16:50;;;;;;;;;;;18.00;99.90;;;;;;4787344;29;19936;-79
2023/05/17 10:19:19;;;;;;;;;;;18.10;99.90;;;;;;4816171;29;20460;-79
2023/05/17 10:21:48;;;;;;;;;;;18.00;99.90;;;;;;4831416;29;20022;-78
2023/05/17 10:24:16;;;;;;;;;;;18.00;99.90;;;;;;4830112;29;20388;-78
2023/05/17 10:26:43;;;;;;;;;;;18.00;99.90;;;;;;4802456;29;19928;-79
2023/05/17 10:29:11;;;;;;;;;;;17.90;99.90;;;;;;4801049;29;19935;-79
2023/05/17 10:31:40;;;;;;;;;;;18.00;99.90;;;;;;4835102;29;20432;-79
2023/05/17 10:34:07;;;;;;;;;;;17.90;99.90;;;;;;4811706;29;19931;-79
2023/05/17 10:36:36;;;;;;;;;;;18.00;99.90;;;;;;4817855;29;22136;-79
2023/05/17 10:39:08;;;;;;;;;;;17.80;99.90;;;;;;4802463;29;20037;-79
2023/05/17 10:41:36;;;;;;;;;;;18.20;99.90;;;;;;4816444;29;22342;-79
2023/05/17 10:44:06;;;;;;;;;;;18.40;99.90;;;;;;4811916;29;19936;-79
2023/05/17 10:46:35;;;;;;;;;;;18.50;99.90;;;;;;4829297;29;19936;-79
2023/05/17 10:49:02;;;;;;;;;;;18.80;99.90;;;;;;4801635;29;20693;-78
2023/05/17 10:51:30;;;;;;;;;;;18.70;99.90;;;;;;4800732;29;19936;-76
2023/05/17 10:54:03;;;;;;;;;;;18.60;99.90;;;;;;4828052;29;19936;-77
2023/05/17 10:56:30;;;;;;;;;;;18.80;99.90;;;;;;4801350;29;19936;-77
2023/05/17 10:59:17;;;;;;;;;;;18.80;99.90;;;;;;4817315;29;19936;-76
2023/05/17 11:01:54;;;;;;;;;;;18.80;99.90;;;;;;4783691;29;19967;-79
2023/05/17 11:04:22;;;;;;;;;;;19.00;99.90;;;;;;4800218;29;20032;-79
2023/05/17 11:06:50;;;;;;;;;;;19.10;99.90;;;;;;4792708;29;19929;-78
2023/05/17 11:09:20;;;;;;;;;;;18.90;99.90;;;;;;4789565;29;20047;-79
2023/05/17 11:12:04;;;;;;;;;;;18.70;99.90;;;;;;4831744;29;19942;-78
2023/05/17 11:14:43;;;;;;;;;;;18.70;99.90;;;;;;4805405;29;20057;-76
2023/05/17 11:17:13;;;;;;;;;;;18.80;99.90;;;;;;4799018;29;19935;-78
2023/05/17 11:19:53;;;;;;;;;;;18.90;99.90;;;;;;4801792;29;19935;-79
2023/05/17 11:22:24;;;;;;;;;;;18.80;99.90;;;;;;4808881;29;22187;-79
2023/05/17 11:24:52;;;;;;;;;;;18.90;99.90;;;;;;4799401;29;19935;-78
2023/05/17 11:27:25;;;;;;;;;;;18.80;99.90;;;;;;4798883;29;20455;-78
2023/05/17 11:29:54;;;;;;;;;;;18.70;99.90;;;;;;4800118;29;19936;-80
2023/05/17 11:32:31;;;;;;;;;;;18.70;99.90;;;;;;4811484;29;19939;-79
2023/05/17 11:35:01;;;;;;;;;;;18.80;99.90;;;;;;4813140;29;22860;-79
2023/05/17 11:37:29;;;;;;;;;;;18.70;99.90;;;;;;4784306;29;19936;-77
2023/05/17 11:40:04;;;;;;;;;;;18.90;99.90;;;;;;4785036;29;19936;-78
2023/05/17 11:42:32;;;;;;;;;;;18.90;99.90;;;;;;4817185;29;20536;-79
2023/05/17 11:45:00;;;;;;;;;;;19.20;99.90;;;;;;4800470;29;22125;-78
2023/05/17 11:47:28;;;;;;;;;;;19.40;99.90;;;;;;4816305;29;20388;-78
2023/05/17 11:49:59;;;;;;;;;;;19.50;99.90;;;;;;4793034;29;19936;-79
2023/05/17 11:52:27;;;;;;;;;;;19.60;99.90;;;;;;4799376;29;22240;-79
2023/05/17 11:54:58;;;;;;;;;;;19.60;99.90;;;;;;4800560;29;23002;-78
2023/05/17 11:57:29;;;;;;;;;;;19.40;99.90;;;;;;4816764;29;20580;-79
2023/05/17 12:00:04;;;;;;;;;;;19.30;99.90;;;;;;4823179;29;20452;-78
2023/05/17 12:02:40;;;;;;;;;;;19.40;99.90;;;;;;4800018;29;20400;-79
2023/05/17 12:05:07;;;;;;;;;;;19.00;99.90;;;;;;4799468;29;19936;-80
2023/05/17 12:07:36;;;;;;;;;;;19.30;99.90;;;;;;4800379;29;19944;-78
2023/05/17 12:10:04;;;;;;;;;;;19.30;99.90;;;;;;4792954;29;19936;-78
2023/05/17 12:12:31;;;;;;;;;;;19.40;99.90;;;;;;4775484;29;19959;-79
2023/05/17 12:14:58;;;;;;;;;;;19.40;99.90;;;;;;4815303;29;19944;-78
2023/05/17 12:17:29;;;;;;;;;;;19.50;99.90;;;;;;4791066;29;22382;-79
2023/05/17 12:20:05;;;;;;;;;;;19.70;99.90;;;;;;4799960;29;20646;-79
2023/05/17 12:22:33;;;;;;;;;;;19.80;99.90;;;;;;4798265;29;20324;-79
2023/05/17 12:25:00;;;;;;;;;;;19.70;99.90;;;;;;4792232;29;19943;-79
2023/05/17 12:27:27;;;;;;;;;;;19.50;99.90;;;;;;4814195;29;19943;-79
2023/05/17 12:29:55;;;;;;;;;;;19.50;99.90;;;;;;4797168;29;19944;-79
2023/05/17 12:32:23;;;;;;;;;;;19.40;99.90;;;;;;4812453;29;19948;-77
2023/05/17 12:34:51;;;;;;;;;;;19.00;99.90;;;;;;4830186;29;19936;-78
2023/05/17 12:37:18;;;;;;;;;;;19.00;99.90;;;;;;4818866;29;19937;-78
2023/05/17 12:39:45;;;;;;;;;;;18.90;99.90;;;;;;4801178;29;19936;-79
2023/05/17 12:42:13;;;;;;;;;;;19.00;99.90;;;;;;4833009;29;20068;-79
2023/05/17 12:44:40;;;;;;;;;;;19.00;99.90;;;;;;4802528;29;20459;-79
2023/05/17 12:47:08;;;;;;;;;;;19.00;99.90;;;;;;4803318;29;19943;-79
2023/05/17 12:49:36;;;;;;;;;;;19.60;99.90;;;;;;4787532;29;19936;-79
2023/05/17 12:52:04;;;;;;;;;;;19.30;99.90;;;;;;4799805;29;20415;-78
2023/05/17 12:54:31;;;;;;;;;;;19.50;99.90;;;;;;4817528;29;22342;-79
2023/05/17 12:57:08;;;;;;;;;;;19.70;99.90;;;;;;4792007;29;19936;-78
2023/05/17 12:59:45;;;;;;;;;;;19.70;99.90;;;;;;4786438;29;20834;-79
2023/05/17 13:02:13;;;;;;;;;;;19.90;99.90;;;;;;4818193;29;19939;-79
2023/05/17 13:04:40;;;;;;;;;;;19.40;99.90;;;;;;4802434;29;20420;-79
2023/05/17 13:07:10;;;;;;;;;;;20.10;99.90;;;;;;4818292;29;19936;-78
2023/05/17 13:09:47;;;;;;;;;;;19.90;99.90;;;;;;4803640;29;19943;-80
2023/05/17 13:12:18;;;;;;;;;;;19.90;99.90;;;;;;4786840;29;20517;-79
2023/05/17 13:14:53;;;;;;;;;;;19.90;99.90;;;;;;4799371;29;20757;-78
2023/05/17 13:17:25;;;;;;;;;;;20.50;99.90;;;;;;4802378;29;19997;-79
2023/05/17 13:19:52;;;;;;;;;;;19.90;99.90;;;;;;4802255;29;19936;-80
2023/05/17 13:22:20;;;;;;;;;;;19.90;99.90;;;;;;4801213;29;19936;-80
2023/05/17 13:24:47;;;;;;;;;;;19.70;99.90;;;;;;4800447;29;19943;-78
2023/05/17 13:27:15;;;;;;;;;;;19.70;99.90;;;;;;4816927;29;20113;-78
2023/05/17 13:29:43;;;;;;;;;;;19.60;99.90;;;;;;4808230;29;19936;-78
2023/05/17 13:32:11;;;;;;;;;;;19.80;99.90;;;;;;4779968;29;19960;-79
2023/05/17 13:34:38;;;;;;;;;;;19.80;99.90;;;;;;4800482;29;19937;-79
2023/05/17 13:37:06;;;;;;;;;;;19.60;99.90;;;;;;4794025;29;20487;-79
2023/05/17 13:39:37;;;;;;;;;;;19.70;99.90;;;;;;4802719;29;20067;-79
2023/05/17 13:42:04;;;;;;;;;;;19.70;99.90;;;;;;4817590;29;20348;-77
2023/05/17 13:44:31;;;;;;;;;;;19.60;99.90;;;;;;4817942;29;19974;-78
2023/05/17 13:46:58;;;;;;;;;;;19.60;99.90;;;;;;4791637;29;20063;-79
2023/05/17 13:49:27;;;;;;;;;;;19.50;99.90;;;;;;4801081;29;20040;-79
2023/05/17 13:51:55;;;;;;;;;;;19.60;99.90;;;;;;4817275;29;19936;-78
2023/05/17 13:54:22;;;;;;;;;;;19.50;99.90;;;;;;4801273;29;19936;-79
2023/05/17 13:56:49;;;;;;;;;;;19.60;99.90;;;;;;4809427;29;19936;-79
2023/05/17 13:59:16;;;;;;;;;;;19.50;99.90;;;;;;4803174;29;19936;-79
2023/05/17 14:01:44;;;;;;;;;;;19.60;99.90;;;;;;4811472;29;19933;-77
2023/05/17 14:04:11;;;;;;;;;;;19.70;99.90;;;;;;4817606;29;20418;-79
2023/05/17 14:06:41;;;;;;;;;;;19.80;99.90;;;;;;4802674;29;19943;-79
2023/05/17 14:09:09;;;;;;;;;;;19.80;99.90;;;;;;4816997;29;19936;-77
2023/05/17 14:11:36;;;;;;;;;;;19.70;99.90;;;;;;4801034;29;22220;-79
2023/05/17 14:14:03;;;;;;;;;;;19.70;99.90;;;;;;4826689;29;20810;-79
2023/05/17 14:16:30;;;;;;;;;;;19.70;99.90;;;;;;4792703;29;19935;-79
2023/05/17 14:18:58;;;;;;;;;;;19.70;99.90;;;;;;4812846;29;20059;-78
2023/05/17 14:21:30;;;;;;;;;;;19.60;99.90;;;;;;4817926;29;19943;-79
2023/05/17 14:23:57;;;;;;;;;;;19.50;99.90;;;;;;4787175;29;19936;-79